sensor_id;sensor_type;location;lat;lon;timestamp;P1;durP1;ratioP1;P2;durP2;ratioP2
80653;SDS011;70020;45.524;10.240;2024-01-30T00:01:30;48.65;;;32.45;;
80653;SDS011;70020;45.524;10.240;2024-01-30T00:03:59;49.97;;;31.70;;
80653;SDS011;70020;45.524;10.240;2024-01-30T00:06:25;48.33;;;32.00;;
80653;SDS011;70020;45.524;10.240;2024-01-30T00:08:51;49.20;;;34.13;;
80653;SDS011;70020;45.524;10.240;2024-01-30T00:11:16;48.03;;;31.63;;
80653;SDS011;70020;45.524;10.240;2024-01-30T00:13:43;50.95;;;33.50;;
80653;SDS011;70020;45.524;10.240;2024-01-30T00:16:16;48.67;;;32.47;;
80653;SDS011;70020;45.524;10.240;2024-01-30T00:18:45;50.78;;;33.13;;
80653;SDS011;70020;45.524;10.240;2024-01-30T00:21:12;49.17;;;32.38;;
80653;SDS011;70020;45.524;10.240;2024-01-30T00:23:37;51.33;;;32.93;;
80653;SDS011;70020;45.524;10.240;2024-01-30T00:26:03;48.07;;;31.80;;
80653;SDS011;70020;45.524;10.240;2024-01-30T00:28:30;49.17;;;32.25;;
80653;SDS011;70020;45.524;10.240;2024-01-30T00:30:55;50.13;;;31.57;;
80653;SDS011;70020;45.524;10.240;2024-01-30T00:33:21;46.23;;;31.10;;
80653;SDS011;70020;45.524;10.240;2024-01-30T00:35:48;43.83;;;31.13;;
80653;SDS011;70020;45.524;10.240;2024-01-30T00:38:13;46.37;;;30.60;;
80653;SDS011;70020;45.524;10.240;2024-01-30T00:40:39;45.43;;;30.97;;
80653;SDS011;70020;45.524;10.240;2024-01-30T00:43:05;44.80;;;30.43;;
80653;SDS011;70020;45.524;10.240;2024-01-30T00:45:31;42.37;;;30.00;;
80653;SDS011;70020;45.524;10.240;2024-01-30T00:47:56;46.83;;;31.30;;
80653;SDS011;70020;45.524;10.240;2024-01-30T00:50:22;45.60;;;31.13;;
80653;SDS011;70020;45.524;10.240;2024-01-30T00:52:47;43.57;;;30.43;;
80653;SDS011;70020;45.524;10.240;2024-01-30T00:55:13;42.73;;;31.33;;
80653;SDS011;70020;45.524;10.240;2024-01-30T00:57:39;43.13;;;29.37;;
80653;SDS011;70020;45.524;10.240;2024-01-30T01:00:05;46.28;;;31.05;;
80653;SDS011;70020;45.524;10.240;2024-01-30T01:02:34;45.45;;;29.77;;
80653;SDS011;70020;45.524;10.240;2024-01-30T01:04:59;41.35;;;30.48;;
80653;SDS011;70020;45.524;10.240;2024-01-30T01:07:25;42.20;;;30.83;;
80653;SDS011;70020;45.524;10.240;2024-01-30T01:09:51;42.87;;;30.83;;
80653;SDS011;70020;45.524;10.240;2024-01-30T01:12:17;45.05;;;30.92;;
80653;SDS011;70020;45.524;10.240;2024-01-30T01:14:43;45.47;;;30.37;;
80653;SDS011;70020;45.524;10.240;2024-01-30T01:17:09;53.27;;;34.57;;
80653;SDS011;70020;45.524;10.240;2024-01-30T01:19:34;50.47;;;32.23;;
80653;SDS011;70020;45.524;10.240;2024-01-30T01:22:02;43.90;;;31.57;;
80653;SDS011;70020;45.524;10.240;2024-01-30T01:24:30;50.95;;;33.60;;
80653;SDS011;70020;45.524;10.240;2024-01-30T01:26:57;47.78;;;31.27;;
80653;SDS011;70020;45.524;10.240;2024-01-30T01:31:53;50.92;;;32.88;;
80653;SDS011;70020;45.524;10.240;2024-01-30T01:34:22;49.08;;;31.90;;
80653;SDS011;70020;45.524;10.240;2024-01-30T01:36:51;49.15;;;33.47;;
80653;SDS011;70020;45.524;10.240;2024-01-30T01:39:20;47.50;;;32.25;;
80653;SDS011;70020;45.524;10.240;2024-01-30T01:41:46;48.17;;;32.93;;
80653;SDS011;70020;45.524;10.240;2024-01-30T01:44:11;46.60;;;31.97;;
80653;SDS011;70020;45.524;10.240;2024-01-30T01:46:37;52.57;;;32.03;;
80653;SDS011;70020;45.524;10.240;2024-01-30T01:49:04;50.75;;;33.17;;
80653;SDS011;70020;45.524;10.240;2024-01-30T01:51:31;52.05;;;34.20;;
80653;SDS011;70020;45.524;10.240;2024-01-30T01:54:00;53.58;;;32.13;;
80653;SDS011;70020;45.524;10.240;2024-01-30T01:56:28;54.55;;;33.88;;
80653;SDS011;70020;45.524;10.240;2024-01-30T01:58:58;54.67;;;33.22;;
80653;SDS011;70020;45.524;10.240;2024-01-30T02:01:25;50.63;;;33.08;;
80653;SDS011;70020;45.524;10.240;2024-01-30T02:03:52;46.83;;;29.98;;
80653;SDS011;70020;45.524;10.240;2024-01-30T02:06:18;55.85;;;35.30;;
80653;SDS011;70020;45.524;10.240;2024-01-30T02:08:45;62.20;;;36.03;;
80653;SDS011;70020;45.524;10.240;2024-01-30T02:11:11;56.47;;;34.90;;
80653;SDS011;70020;45.524;10.240;2024-01-30T02:13:37;58.63;;;35.90;;
80653;SDS011;70020;45.524;10.240;2024-01-30T02:16:02;55.83;;;34.67;;
80653;SDS011;70020;45.524;10.240;2024-01-30T02:18:29;61.08;;;37.45;;
80653;SDS011;70020;45.524;10.240;2024-01-30T02:20:56;54.27;;;33.93;;
80653;SDS011;70020;45.524;10.240;2024-01-30T02:23:26;54.45;;;34.55;;
80653;SDS011;70020;45.524;10.240;2024-01-30T02:25:53;54.83;;;33.92;;
80653;SDS011;70020;45.524;10.240;2024-01-30T02:28:24;53.57;;;34.97;;
80653;SDS011;70020;45.524;10.240;2024-01-30T02:30:49;49.92;;;33.67;;
80653;SDS011;70020;45.524;10.240;2024-01-30T02:33:15;48.63;;;32.67;;
80653;SDS011;70020;45.524;10.240;2024-01-30T02:35:41;48.07;;;32.70;;
80653;SDS011;70020;45.524;10.240;2024-01-30T02:38:09;55.70;;;34.97;;
80653;SDS011;70020;45.524;10.240;2024-01-30T02:40:35;50.97;;;33.72;;
80653;SDS011;70020;45.524;10.240;2024-01-30T02:43:01;58.97;;;34.27;;
80653;SDS011;70020;45.524;10.240;2024-01-30T02:45:28;55.33;;;35.08;;
80653;SDS011;70020;45.524;10.240;2024-01-30T02:47:56;57.20;;;36.37;;
80653;SDS011;70020;45.524;10.240;2024-01-30T02:50:22;57.35;;;34.20;;
80653;SDS011;70020;45.524;10.240;2024-01-30T02:52:48;53.20;;;33.53;;
80653;SDS011;70020;45.524;10.240;2024-01-30T02:55:14;58.97;;;36.13;;
80653;SDS011;70020;45.524;10.240;2024-01-30T02:57:42;63.78;;;37.17;;
80653;SDS011;70020;45.524;10.240;2024-01-30T03:00:09;60.78;;;34.78;;
80653;SDS011;70020;45.524;10.240;2024-01-30T03:02:35;60.10;;;35.63;;
80653;SDS011;70020;45.524;10.240;2024-01-30T03:05:01;63.08;;;36.92;;
80653;SDS011;70020;45.524;10.240;2024-01-30T03:07:31;63.13;;;37.17;;
80653;SDS011;70020;45.524;10.240;2024-01-30T03:09:57;66.70;;;36.65;;
80653;SDS011;70020;45.524;10.240;2024-01-30T03:12:23;65.05;;;38.05;;
80653;SDS011;70020;45.524;10.240;2024-01-30T03:14:49;70.00;;;39.30;;
80653;SDS011;70020;45.524;10.240;2024-01-30T03:17:15;63.93;;;35.20;;
80653;SDS011;70020;45.524;10.240;2024-01-30T03:19:41;63.50;;;35.95;;
80653;SDS011;70020;45.524;10.240;2024-01-30T03:22:06;63.53;;;38.00;;
80653;SDS011;70020;45.524;10.240;2024-01-30T03:24:32;68.18;;;38.92;;
80653;SDS011;70020;45.524;10.240;2024-01-30T03:26:58;66.50;;;37.47;;
80653;SDS011;70020;45.524;10.240;2024-01-30T03:29:28;63.00;;;33.72;;
80653;SDS011;70020;45.524;10.240;2024-01-30T03:31:54;65.20;;;35.97;;
80653;SDS011;70020;45.524;10.240;2024-01-30T03:36:46;64.55;;;36.25;;
80653;SDS011;70020;45.524;10.240;2024-01-30T03:39:13;62.60;;;36.00;;
80653;SDS011;70020;45.524;10.240;2024-01-30T03:41:41;62.70;;;35.93;;
80653;SDS011;70020;45.524;10.240;2024-01-30T03:44:07;63.33;;;36.15;;
80653;SDS011;70020;45.524;10.240;2024-01-30T03:46:34;64.68;;;36.35;;
80653;SDS011;70020;45.524;10.240;2024-01-30T03:48:59;62.10;;;36.83;;
80653;SDS011;70020;45.524;10.240;2024-01-30T03:51:26;60.35;;;36.55;;
80653;SDS011;70020;45.524;10.240;2024-01-30T03:53:51;58.30;;;35.90;;
80653;SDS011;70020;45.524;10.240;2024-01-30T03:56:18;63.13;;;36.95;;
80653;SDS011;70020;45.524;10.240;2024-01-30T03:58:43;60.47;;;35.67;;
80653;SDS011;70020;45.524;10.240;2024-01-30T04:01:12;60.37;;;35.10;;
80653;SDS011;70020;45.524;10.240;2024-01-30T04:03:41;54.60;;;34.70;;
80653;SDS011;70020;45.524;10.240;2024-01-30T04:06:08;66.43;;;35.78;;
80653;SDS011;70020;45.524;10.240;2024-01-30T04:08:34;65.33;;;37.60;;
80653;SDS011;70020;45.524;10.240;2024-01-30T04:11:06;61.03;;;35.43;;
80653;SDS011;70020;45.524;10.240;2024-01-30T04:13:32;64.20;;;36.88;;
80653;SDS011;70020;45.524;10.240;2024-01-30T04:15:59;67.38;;;36.35;;
80653;SDS011;70020;45.524;10.240;2024-01-30T04:18:26;65.45;;;37.67;;
80653;SDS011;70020;45.524;10.240;2024-01-30T04:20:52;65.25;;;37.15;;
80653;SDS011;70020;45.524;10.240;2024-01-30T04:23:18;62.00;;;35.57;;
80653;SDS011;70020;45.524;10.240;2024-01-30T04:25:43;60.87;;;36.17;;
80653;SDS011;70020;45.524;10.240;2024-01-30T04:28:10;63.70;;;35.67;;
80653;SDS011;70020;45.524;10.240;2024-01-30T04:30:38;61.70;;;35.75;;
80653;SDS011;70020;45.524;10.240;2024-01-30T04:33:04;65.50;;;37.47;;
80653;SDS011;70020;45.524;10.240;2024-01-30T04:35:31;63.50;;;34.65;;
80653;SDS011;70020;45.524;10.240;2024-01-30T04:37:57;57.50;;;34.07;;
80653;SDS011;70020;45.524;10.240;2024-01-30T04:40:22;62.47;;;35.90;;
80653;SDS011;70020;45.524;10.240;2024-01-30T04:42:48;61.83;;;37.93;;
80653;SDS011;70020;45.524;10.240;2024-01-30T04:45:14;62.23;;;35.43;;
80653;SDS011;70020;45.524;10.240;2024-01-30T04:47:40;56.27;;;35.90;;
80653;SDS011;70020;45.524;10.240;2024-01-30T04:50:06;55.63;;;34.43;;
80653;SDS011;70020;45.524;10.240;2024-01-30T04:52:32;59.97;;;35.25;;
80653;SDS011;70020;45.524;10.240;2024-01-30T04:54:58;59.77;;;37.13;;
80653;SDS011;70020;45.524;10.240;2024-01-30T04:57:24;59.87;;;37.17;;
80653;SDS011;70020;45.524;10.240;2024-01-30T04:59:49;58.70;;;36.40;;
80653;SDS011;70020;45.524;10.240;2024-01-30T05:02:15;59.63;;;36.83;;
80653;SDS011;70020;45.524;10.240;2024-01-30T05:04:41;62.00;;;36.58;;
80653;SDS011;70020;45.524;10.240;2024-01-30T05:07:08;61.47;;;38.07;;
80653;SDS011;70020;45.524;10.240;2024-01-30T05:09:35;62.65;;;36.80;;
80653;SDS011;70020;45.524;10.240;2024-01-30T05:12:01;58.30;;;37.00;;
80653;SDS011;70020;45.524;10.240;2024-01-30T05:14:27;58.40;;;36.27;;
80653;SDS011;70020;45.524;10.240;2024-01-30T05:16:53;55.97;;;35.58;;
80653;SDS011;70020;45.524;10.240;2024-01-30T05:19:19;59.20;;;35.77;;
80653;SDS011;70020;45.524;10.240;2024-01-30T05:21:46;58.60;;;37.22;;
80653;SDS011;70020;45.524;10.240;2024-01-30T05:24:12;61.63;;;36.40;;
80653;SDS011;70020;45.524;10.240;2024-01-30T05:26:37;62.80;;;37.03;;
80653;SDS011;70020;45.524;10.240;2024-01-30T05:29:03;63.33;;;35.83;;
80653;SDS011;70020;45.524;10.240;2024-01-30T05:31:30;61.78;;;36.15;;
80653;SDS011;70020;45.524;10.240;2024-01-30T05:33:56;55.60;;;35.67;;
80653;SDS011;70020;45.524;10.240;2024-01-30T05:36:21;53.93;;;34.10;;
80653;SDS011;70020;45.524;10.240;2024-01-30T05:38:47;53.13;;;34.77;;
80653;SDS011;70020;45.524;10.240;2024-01-30T05:41:13;58.60;;;35.30;;
80653;SDS011;70020;45.524;10.240;2024-01-30T05:43:38;56.17;;;35.13;;
80653;SDS011;70020;45.524;10.240;2024-01-30T05:46:04;56.47;;;34.77;;
80653;SDS011;70020;45.524;10.240;2024-01-30T05:48:33;56.57;;;36.03;;
80653;SDS011;70020;45.524;10.240;2024-01-30T05:51:00;59.65;;;36.00;;
80653;SDS011;70020;45.524;10.240;2024-01-30T05:53:26;57.40;;;35.03;;
80653;SDS011;70020;45.524;10.240;2024-01-30T05:55:52;55.40;;;34.67;;
80653;SDS011;70020;45.524;10.240;2024-01-30T05:58:18;56.23;;;33.37;;
80653;SDS011;70020;45.524;10.240;2024-01-30T06:00:44;49.80;;;34.03;;
80653;SDS011;70020;45.524;10.240;2024-01-30T06:03:09;50.00;;;32.73;;
80653;SDS011;70020;45.524;10.240;2024-01-30T06:05:35;51.22;;;33.33;;
80653;SDS011;70020;45.524;10.240;2024-01-30T06:08:02;54.27;;;33.83;;
80653;SDS011;70020;45.524;10.240;2024-01-30T06:10:27;52.95;;;34.15;;
80653;SDS011;70020;45.524;10.240;2024-01-30T06:12:53;62.40;;;35.88;;
80653;SDS011;70020;45.524;10.240;2024-01-30T06:15:20;51.35;;;31.75;;
80653;SDS011;70020;45.524;10.240;2024-01-30T06:17:45;53.17;;;32.57;;
80653;SDS011;70020;45.524;10.240;2024-01-30T06:20:12;52.60;;;33.50;;
80653;SDS011;70020;45.524;10.240;2024-01-30T06:22:38;53.40;;;33.53;;
80653;SDS011;70020;45.524;10.240;2024-01-30T06:25:04;50.15;;;31.55;;
80653;SDS011;70020;45.524;10.240;2024-01-30T06:27:30;48.97;;;32.08;;
80653;SDS011;70020;45.524;10.240;2024-01-30T06:29:56;48.80;;;31.90;;
80653;SDS011;70020;45.524;10.240;2024-01-30T06:32:22;52.07;;;32.63;;
80653;SDS011;70020;45.524;10.240;2024-01-30T06:37:14;56.75;;;32.20;;
80653;SDS011;70020;45.524;10.240;2024-01-30T06:39:39;52.77;;;33.63;;
80653;SDS011;70020;45.524;10.240;2024-01-30T06:42:06;54.58;;;34.10;;
80653;SDS011;70020;45.524;10.240;2024-01-30T06:44:31;48.13;;;32.03;;
80653;SDS011;70020;45.524;10.240;2024-01-30T06:46:57;54.37;;;34.43;;
80653;SDS011;70020;45.524;10.240;2024-01-30T06:49:23;59.10;;;33.80;;
80653;SDS011;70020;45.524;10.240;2024-01-30T06:51:52;53.25;;;33.25;;
80653;SDS011;70020;45.524;10.240;2024-01-30T06:54:18;54.90;;;34.30;;
80653;SDS011;70020;45.524;10.240;2024-01-30T06:56:44;50.97;;;32.42;;
80653;SDS011;70020;45.524;10.240;2024-01-30T06:59:09;53.03;;;33.20;;
80653;SDS011;70020;45.524;10.240;2024-01-30T07:01:35;53.13;;;33.43;;
80653;SDS011;70020;45.524;10.240;2024-01-30T07:04:01;55.70;;;33.67;;
80653;SDS011;70020;45.524;10.240;2024-01-30T07:06:26;56.53;;;34.80;;
80653;SDS011;70020;45.524;10.240;2024-01-30T07:08:53;54.95;;;34.47;;
80653;SDS011;70020;45.524;10.240;2024-01-30T07:11:19;55.70;;;34.50;;
80653;SDS011;70020;45.524;10.240;2024-01-30T07:13:46;52.70;;;33.95;;
80653;SDS011;70020;45.524;10.240;2024-01-30T07:16:12;53.10;;;33.20;;
80653;SDS011;70020;45.524;10.240;2024-01-30T07:18:38;50.53;;;32.90;;
80653;SDS011;70020;45.524;10.240;2024-01-30T07:21:04;51.88;;;33.33;;
80653;SDS011;70020;45.524;10.240;2024-01-30T07:23:30;52.47;;;32.27;;
80653;SDS011;70020;45.524;10.240;2024-01-30T07:25:55;51.67;;;32.40;;
80653;SDS011;70020;45.524;10.240;2024-01-30T07:28:21;51.57;;;31.97;;
80653;SDS011;70020;45.524;10.240;2024-01-30T07:30:47;55.40;;;33.70;;
80653;SDS011;70020;45.524;10.240;2024-01-30T07:33:13;48.07;;;32.00;;
80653;SDS011;70020;45.524;10.240;2024-01-30T07:35:39;53.30;;;32.13;;
80653;SDS011;70020;45.524;10.240;2024-01-30T07:38:04;51.63;;;32.40;;
80653;SDS011;70020;45.524;10.240;2024-01-30T07:40:30;53.20;;;33.00;;
80653;SDS011;70020;45.524;10.240;2024-01-30T07:42:57;57.83;;;33.65;;
80653;SDS011;70020;45.524;10.240;2024-01-30T07:45:22;53.00;;;33.50;;
80653;SDS011;70020;45.524;10.240;2024-01-30T07:47:49;53.83;;;34.35;;
80653;SDS011;70020;45.524;10.240;2024-01-30T07:50:15;63.28;;;35.80;;
80653;SDS011;70020;45.524;10.240;2024-01-30T07:52:41;63.37;;;34.80;;
80653;SDS011;70020;45.524;10.240;2024-01-30T07:57:33;56.90;;;33.90;;
80653;SDS011;70020;45.524;10.240;2024-01-30T07:59:59;58.70;;;34.80;;
80653;SDS011;70020;45.524;10.240;2024-01-30T08:02:25;58.40;;;36.50;;
80653;SDS011;70020;45.524;10.240;2024-01-30T08:04:51;56.33;;;35.58;;
80653;SDS011;70020;45.524;10.240;2024-01-30T08:07:17;59.47;;;40.97;;
80653;SDS011;70020;45.524;10.240;2024-01-30T08:09:42;55.33;;;37.30;;
80653;SDS011;70020;45.524;10.240;2024-01-30T08:12:10;60.75;;;37.35;;
80653;SDS011;70020;45.524;10.240;2024-01-30T08:14:36;59.33;;;37.85;;
80653;SDS011;70020;45.524;10.240;2024-01-30T08:17:02;58.25;;;37.08;;
80653;SDS011;70020;45.524;10.240;2024-01-30T08:19:28;59.15;;;38.05;;
80653;SDS011;70020;45.524;10.240;2024-01-30T08:21:54;63.05;;;37.25;;
80653;SDS011;70020;45.524;10.240;2024-01-30T08:24:24;59.85;;;36.30;;
80653;SDS011;70020;45.524;10.240;2024-01-30T08:26:50;57.55;;;36.85;;
80653;SDS011;70020;45.524;10.240;2024-01-30T08:29:16;56.13;;;35.93;;
80653;SDS011;70020;45.524;10.240;2024-01-30T08:31:42;55.47;;;36.37;;
80653;SDS011;70020;45.524;10.240;2024-01-30T08:34:09;62.65;;;39.60;;
80653;SDS011;70020;45.524;10.240;2024-01-30T08:36:35;57.97;;;37.17;;
80653;SDS011;70020;45.524;10.240;2024-01-30T08:41:27;59.90;;;34.38;;
80653;SDS011;70020;45.524;10.240;2024-01-30T08:43:53;58.35;;;35.42;;
80653;SDS011;70020;45.524;10.240;2024-01-30T08:46:19;56.50;;;35.85;;
80653;SDS011;70020;45.524;10.240;2024-01-30T08:48:45;51.50;;;34.30;;
80653;SDS011;70020;45.524;10.240;2024-01-30T08:51:11;52.80;;;35.80;;
80653;SDS011;70020;45.524;10.240;2024-01-30T08:53:37;56.87;;;33.97;;
80653;SDS011;70020;45.524;10.240;2024-01-30T08:56:03;51.40;;;33.17;;
80653;SDS011;70020;45.524;10.240;2024-01-30T08:58:30;55.40;;;34.30;;
80653;SDS011;70020;45.524;10.240;2024-01-30T09:00:56;59.93;;;35.17;;
80653;SDS011;70020;45.524;10.240;2024-01-30T09:03:22;54.37;;;35.30;;
80653;SDS011;70020;45.524;10.240;2024-01-30T09:05:47;51.90;;;34.53;;
80653;SDS011;70020;45.524;10.240;2024-01-30T09:08:12;51.83;;;34.13;;
80653;SDS011;70020;45.524;10.240;2024-01-30T09:10:38;56.00;;;35.73;;
80653;SDS011;70020;45.524;10.240;2024-01-30T09:13:07;56.85;;;35.13;;
80653;SDS011;70020;45.524;10.240;2024-01-30T09:15:33;54.67;;;34.92;;
80653;SDS011;70020;45.524;10.240;2024-01-30T09:17:59;49.63;;;33.33;;
80653;SDS011;70020;45.524;10.240;2024-01-30T09:20:25;64.07;;;35.13;;
80653;SDS011;70020;45.524;10.240;2024-01-30T09:22:51;55.35;;;35.25;;
80653;SDS011;70020;45.524;10.240;2024-01-30T09:25:17;53.63;;;35.33;;
80653;SDS011;70020;45.524;10.240;2024-01-30T09:27:43;51.33;;;34.58;;
80653;SDS011;70020;45.524;10.240;2024-01-30T09:30:09;53.13;;;35.73;;
80653;SDS011;70020;45.524;10.240;2024-01-30T09:32:36;54.53;;;35.08;;
80653;SDS011;70020;45.524;10.240;2024-01-30T09:35:08;59.60;;;36.85;;
80653;SDS011;70020;45.524;10.240;2024-01-30T09:37:34;53.53;;;35.60;;
80653;SDS011;70020;45.524;10.240;2024-01-30T09:39:59;58.00;;;35.77;;
80653;SDS011;70020;45.524;10.240;2024-01-30T09:44:54;58.00;;;34.55;;
80653;SDS011;70020;45.524;10.240;2024-01-30T09:47:20;50.08;;;33.95;;
80653;SDS011;70020;45.524;10.240;2024-01-30T09:49:46;53.30;;;33.97;;
80653;SDS011;70020;45.524;10.240;2024-01-30T09:54:38;47.40;;;31.35;;
80653;SDS011;70020;45.524;10.240;2024-01-30T09:57:04;51.05;;;32.05;;
80653;SDS011;70020;45.524;10.240;2024-01-30T09:59:31;49.78;;;32.47;;
80653;SDS011;70020;45.524;10.240;2024-01-30T10:01:57;48.42;;;31.05;;
80653;SDS011;70020;45.524;10.240;2024-01-30T10:04:23;51.05;;;30.92;;
80653;SDS011;70020;45.524;10.240;2024-01-30T10:06:49;52.87;;;31.77;;
80653;SDS011;70020;45.524;10.240;2024-01-30T10:09:16;52.35;;;32.20;;
80653;SDS011;70020;45.524;10.240;2024-01-30T10:11:41;51.40;;;32.57;;
80653;SDS011;70020;45.524;10.240;2024-01-30T10:14:07;50.13;;;32.27;;
80653;SDS011;70020;45.524;10.240;2024-01-30T10:16:34;51.90;;;31.03;;
80653;SDS011;70020;45.524;10.240;2024-01-30T10:19:00;54.30;;;32.78;;
80653;SDS011;70020;45.524;10.240;2024-01-30T10:21:25;60.50;;;32.93;;
80653;SDS011;70020;45.524;10.240;2024-01-30T10:23:51;56.60;;;34.23;;
80653;SDS011;70020;45.524;10.240;2024-01-30T10:26:17;57.20;;;33.90;;
80653;SDS011;70020;45.524;10.240;2024-01-30T10:28:43;57.23;;;34.17;;
80653;SDS011;70020;45.524;10.240;2024-01-30T10:31:09;55.43;;;35.27;;
80653;SDS011;70020;45.524;10.240;2024-01-30T10:33:35;60.17;;;34.17;;
80653;SDS011;70020;45.524;10.240;2024-01-30T10:36:02;53.47;;;33.20;;
80653;SDS011;70020;45.524;10.240;2024-01-30T10:38:29;57.97;;;34.40;;
80653;SDS011;70020;45.524;10.240;2024-01-30T10:40:59;50.22;;;33.40;;
80653;SDS011;70020;45.524;10.240;2024-01-30T10:43:30;62.53;;;34.42;;
80653;SDS011;70020;45.524;10.240;2024-01-30T10:46:02;54.97;;;34.72;;
80653;SDS011;70020;45.524;10.240;2024-01-30T10:48:36;59.95;;;34.60;;
80653;SDS011;70020;45.524;10.240;2024-01-30T10:51:07;57.03;;;32.92;;
80653;SDS011;70020;45.524;10.240;2024-01-30T10:53:34;59.95;;;33.40;;
80653;SDS011;70020;45.524;10.240;2024-01-30T10:56:02;56.22;;;33.45;;
80653;SDS011;70020;45.524;10.240;2024-01-30T10:58:30;51.53;;;32.88;;
80653;SDS011;70020;45.524;10.240;2024-01-30T11:00:56;60.60;;;35.50;;
80653;SDS011;70020;45.524;10.240;2024-01-30T11:03:22;51.10;;;32.60;;
80653;SDS011;70020;45.524;10.240;2024-01-30T11:05:51;56.10;;;33.67;;
80653;SDS011;70020;45.524;10.240;2024-01-30T11:08:24;53.85;;;32.50;;
80653;SDS011;70020;45.524;10.240;2024-01-30T11:10:54;54.55;;;31.00;;
80653;SDS011;70020;45.524;10.240;2024-01-30T11:13:21;51.63;;;31.38;;
80653;SDS011;70020;45.524;10.240;2024-01-30T11:15:47;48.92;;;30.38;;
80653;SDS011;70020;45.524;10.240;2024-01-30T11:20:49;46.53;;;29.63;;
80653;SDS011;70020;45.524;10.240;2024-01-30T11:23:15;45.33;;;28.90;;
80653;SDS011;70020;45.524;10.240;2024-01-30T11:25:40;48.10;;;28.67;;
80653;SDS011;70020;45.524;10.240;2024-01-30T11:28:12;48.50;;;28.77;;
80653;SDS011;70020;45.524;10.240;2024-01-30T11:30:41;50.92;;;29.15;;
80653;SDS011;70020;45.524;10.240;2024-01-30T11:33:08;52.40;;;30.30;;
80653;SDS011;70020;45.524;10.240;2024-01-30T11:35:37;46.33;;;29.52;;
80653;SDS011;70020;45.524;10.240;2024-01-30T11:38:04;44.42;;;27.67;;
80653;SDS011;70020;45.524;10.240;2024-01-30T11:42:58;42.67;;;27.42;;
80653;SDS011;70020;45.524;10.240;2024-01-30T11:45:28;53.15;;;30.10;;
80653;SDS011;70020;45.524;10.240;2024-01-30T11:47:54;49.63;;;29.80;;
80653;SDS011;70020;45.524;10.240;2024-01-30T11:50:20;45.95;;;27.70;;
80653;SDS011;70020;45.524;10.240;2024-01-30T11:52:47;45.47;;;27.98;;
80653;SDS011;70020;45.524;10.240;2024-01-30T11:55:13;42.28;;;26.20;;
80653;SDS011;70020;45.524;10.240;2024-01-30T11:57:40;42.38;;;26.63;;
80653;SDS011;70020;45.524;10.240;2024-01-30T12:00:05;48.63;;;28.93;;
80653;SDS011;70020;45.524;10.240;2024-01-30T12:02:39;46.53;;;28.58;;
80653;SDS011;70020;45.524;10.240;2024-01-30T12:05:06;41.13;;;25.23;;
80653;SDS011;70020;45.524;10.240;2024-01-30T12:09:58;50.28;;;28.60;;
80653;SDS011;70020;45.524;10.240;2024-01-30T12:12:27;44.97;;;26.47;;
80653;SDS011;70020;45.524;10.240;2024-01-30T12:14:54;42.13;;;26.67;;
80653;SDS011;70020;45.524;10.240;2024-01-30T12:19:49;41.65;;;26.02;;
80653;SDS011;70020;45.524;10.240;2024-01-30T12:22:15;46.97;;;28.53;;
80653;SDS011;70020;45.524;10.240;2024-01-30T12:24:41;42.57;;;26.63;;
80653;SDS011;70020;45.524;10.240;2024-01-30T12:27:07;47.17;;;29.00;;
80653;SDS011;70020;45.524;10.240;2024-01-30T12:29:33;51.87;;;29.60;;
80653;SDS011;70020;45.524;10.240;2024-01-30T12:31:59;42.33;;;27.70;;
80653;SDS011;70020;45.524;10.240;2024-01-30T12:34:25;48.92;;;28.75;;
80653;SDS011;70020;45.524;10.240;2024-01-30T12:36:51;48.63;;;29.13;;
80653;SDS011;70020;45.524;10.240;2024-01-30T12:39:17;52.03;;;29.47;;
80653;SDS011;70020;45.524;10.240;2024-01-30T12:44:09;47.70;;;28.48;;
80653;SDS011;70020;45.524;10.240;2024-01-30T12:46:35;50.00;;;29.67;;
80653;SDS011;70020;45.524;10.240;2024-01-30T12:49:00;49.43;;;29.63;;
80653;SDS011;70020;45.524;10.240;2024-01-30T12:51:26;47.03;;;28.30;;
80653;SDS011;70020;45.524;10.240;2024-01-30T12:53:52;46.60;;;28.58;;
80653;SDS011;70020;45.524;10.240;2024-01-30T12:56:18;47.38;;;26.90;;
80653;SDS011;70020;45.524;10.240;2024-01-30T12:58:44;49.93;;;29.90;;
80653;SDS011;70020;45.524;10.240;2024-01-30T13:01:10;44.47;;;27.63;;
80653;SDS011;70020;45.524;10.240;2024-01-30T13:03:36;42.03;;;27.13;;
80653;SDS011;70020;45.524;10.240;2024-01-30T13:06:02;42.38;;;25.80;;
80653;SDS011;70020;45.524;10.240;2024-01-30T13:08:28;42.95;;;26.98;;
80653;SDS011;70020;45.524;10.240;2024-01-30T13:10:54;41.97;;;24.85;;
80653;SDS011;70020;45.524;10.240;2024-01-30T13:13:20;42.90;;;24.97;;
80653;SDS011;70020;45.524;10.240;2024-01-30T13:15:46;43.22;;;25.13;;
80653;SDS011;70020;45.524;10.240;2024-01-30T13:20:38;46.78;;;26.02;;
80653;SDS011;70020;45.524;10.240;2024-01-30T13:23:04;45.55;;;28.88;;
80653;SDS011;70020;45.524;10.240;2024-01-30T13:25:30;50.90;;;30.40;;
80653;SDS011;70020;45.524;10.240;2024-01-30T13:27:56;43.90;;;26.23;;
80653;SDS011;70020;45.524;10.240;2024-01-30T13:30:22;51.87;;;30.23;;
80653;SDS011;70020;45.524;10.240;2024-01-30T13:32:48;55.42;;;32.60;;
80653;SDS011;70020;45.524;10.240;2024-01-30T13:35:14;53.93;;;32.03;;
80653;SDS011;70020;45.524;10.240;2024-01-30T13:37:42;58.42;;;34.03;;
80653;SDS011;70020;45.524;10.240;2024-01-30T13:40:08;46.77;;;30.67;;
80653;SDS011;70020;45.524;10.240;2024-01-30T13:42:35;45.65;;;29.75;;
80653;SDS011;70020;45.524;10.240;2024-01-30T13:45:00;46.13;;;28.27;;
80653;SDS011;70020;45.524;10.240;2024-01-30T13:47:26;62.22;;;33.58;;
80653;SDS011;70020;45.524;10.240;2024-01-30T13:49:52;52.45;;;32.15;;
80653;SDS011;70020;45.524;10.240;2024-01-30T13:52:18;42.13;;;28.23;;
80653;SDS011;70020;45.524;10.240;2024-01-30T13:54:45;42.50;;;26.35;;
80653;SDS011;70020;45.524;10.240;2024-01-30T13:57:11;38.00;;;24.70;;
80653;SDS011;70020;45.524;10.240;2024-01-30T13:59:37;40.27;;;24.23;;
80653;SDS011;70020;45.524;10.240;2024-01-30T14:02:04;38.65;;;23.52;;
80653;SDS011;70020;45.524;10.240;2024-01-30T14:04:30;41.50;;;25.17;;
80653;SDS011;70020;45.524;10.240;2024-01-30T14:06:55;40.63;;;25.57;;
80653;SDS011;70020;45.524;10.240;2024-01-30T14:09:21;44.97;;;24.70;;
80653;SDS011;70020;45.524;10.240;2024-01-30T14:11:47;43.13;;;27.03;;
80653;SDS011;70020;45.524;10.240;2024-01-30T14:14:13;41.58;;;26.23;;
80653;SDS011;70020;45.524;10.240;2024-01-30T14:16:38;41.90;;;27.70;;
80653;SDS011;70020;45.524;10.240;2024-01-30T14:19:04;45.30;;;27.83;;
80653;SDS011;70020;45.524;10.240;2024-01-30T14:21:30;44.17;;;28.77;;
80653;SDS011;70020;45.524;10.240;2024-01-30T14:23:56;46.93;;;30.37;;
80653;SDS011;70020;45.524;10.240;2024-01-30T14:26:21;48.00;;;31.53;;
80653;SDS011;70020;45.524;10.240;2024-01-30T14:28:47;49.03;;;31.02;;
80653;SDS011;70020;45.524;10.240;2024-01-30T14:31:13;50.50;;;32.00;;
80653;SDS011;70020;45.524;10.240;2024-01-30T14:33:39;52.55;;;32.38;;
80653;SDS011;70020;45.524;10.240;2024-01-30T14:36:05;57.58;;;32.80;;